Latest Weather Observations for Trangie

IDN60801

Issued at 7:42 pm EDT Tuesday 3 March 2015 (issued every 30 minutes, with the page automatically refreshed every 10 minutes)

About weather observations | Map of weather stations | Latest weather observations for NSW | Other Formats
Station Details ID: 051049 Name: TRANGIE RESEARCH STATION AWS Lat: -31.99 Lon: 147.95 Height: 215.0 m
Data from the previous 72 hours. | See also: Recent months at Trangie
Date/Time
EDT
Temp
°C
App
Temp
°C
Dew
Point
Rel
Hum
%
Delta-T
°C
Wind Press
QNH
hPa
Press
MSL
hPa
Rain
since 9 am
mm
Dir
 
Spd
km/h
Gust
km/h
Spd
kts
Gust
kts
03/07:30pm 35.7 33.9 13.2 26 13.8 SSW 15 28 8 15 1009.5 1008.5 0.0
03/07:00pm 36.3 35.4 13.7 25 14.0 SSW 11 17 6 9 1009.3 1008.3 0.0
03/06:30pm 36.0 35.2 14.1 27 13.6 SSW 11 17 6 9 1009.2 1008.2 0.0
03/06:00pm 36.4 36.1 14.4 27 13.8 WSW 9 15 5 8 1009.2 1008.2 0.0
03/05:30pm 36.9 35.2 14.8 26 13.9 W 17 26 9 14 1009.1 1008.1 0.0
03/05:00pm 36.5 34.1 14.5 27 13.8 W 20 28 11 15 1009.3 1008.3 0.0
03/04:30pm 36.5 35.3 13.9 26 14.1 NW 13 28 7 15 1009.5 1008.5 0.0
03/04:00pm 36.3 34.1 14.9 28 13.5 NW 20 28 11 15 1009.8 1008.8 0.0
03/03:30pm 36.1 35.3 15.2 28 13.2 N 13 26 7 14 1010.3 1009.3 0.0
03/03:00pm 37.6 35.8 16.0 28 13.9 NW 20 39 11 21 1010.8 1009.9 0.0
03/02:30pm 35.8 34.4 16.5 31 12.4 NNW 19 28 10 15 1011.5 1010.6 0.0
03/02:00pm 35.3 33.7 16.6 33 12.0 NW 20 33 11 18 1011.8 1010.9 0.0
03/01:30pm 35.3 34.1 17.0 33 11.8 N 19 28 10 15 1012.2 1011.3 0.0
03/01:00pm 34.0 32.3 17.2 36 10.8 NNW 22 32 12 17 1012.7 1011.8 0.0
03/12:30pm 33.1 31.1 17.3 39 10.2 NNW 24 35 13 19 1013.3 1012.3 0.0
03/12:00pm 31.4 29.7 17.3 43 9.0 N 22 33 12 18 1013.9 1012.9 0.0
03/11:30am 31.0 28.8 17.0 43 8.9 N 24 35 13 19 1014.3 1013.3 0.0
03/11:00am 29.2 26.9 16.7 46 7.9 N 24 35 13 19 1014.7 1013.7 0.0
03/10:30am 28.2 25.8 16.5 49 7.3 N 24 35 13 19 1014.9 1014.0 0.0
03/10:00am 27.2 23.7 16.5 52 6.7 N 30 44 16 24 1014.8 1013.9 0.0
03/09:30am 26.1 23.3 16.4 55 6.0 NNE 26 37 14 20 1014.9 1014.0 0.0
03/09:00am 24.4 22.6 15.6 58 5.4 NNE 19 28 10 15 1015.0 1014.1 0.0
03/08:30am 22.7 21.0 14.8 61 4.7 NE 17 24 9 13 1015.1 1014.2 0.0
03/08:00am 21.2 19.8 14.4 65 4.0 ENE 15 22 8 12 1015.0 1014.1 0.0
03/07:30am 19.6 18.8 14.0 70 3.3 E 11 17 6 9 1014.8 1013.9 0.0
03/07:00am 19.0 18.1 13.6 71 3.1 E 11 17 6 9 1014.3 1013.3 0.0
03/06:30am 19.0 18.0 13.4 70 3.2 E 11 15 6 8 1014.0 1013.0 0.0
03/06:00am 19.2 18.2 13.4 69 3.3 E 11 20 6 11 1013.6 1012.6 0.0
03/05:30am 19.4 18.0 13.3 68 3.5 E 13 19 7 10 1013.1 1012.2 0.0
03/05:00am 19.6 17.8 13.3 67 3.6 E 15 22 8 12 1012.8 1011.9 0.0
03/04:30am 19.8 18.4 13.5 67 3.6 E 13 24 7 13 1012.7 1011.8 0.0
03/04:00am 20.1 18.0 13.6 66 3.8 E 17 24 9 13 1012.6 1011.7 0.0
03/03:30am 20.2 18.0 13.4 65 3.9 E 17 26 9 14 1012.3 1011.4 0.0
03/03:00am 20.4 18.3 13.6 65 3.9 ENE 17 22 9 12 1012.4 1011.5 0.0
03/02:30am 20.7 19.0 13.6 64 4.1 E 15 24 8 13 1012.7 1011.8 0.0
03/02:00am 21.0 18.6 13.9 64 4.1 E 19 32 10 17 1012.6 1011.7 0.0
03/01:30am 21.3 19.4 14.2 64 4.2 E 17 28 9 15 1013.0 1012.1 0.0
03/01:00am 21.6 19.8 14.5 64 4.2 E 17 28 9 15 1013.3 1012.3 0.0
03/12:30am 22.0 19.7 14.6 63 4.4 E 20 35 11 19 1013.3 1012.3 0.0
03/12:00am 22.4 20.2 14.8 62 4.5 E 20 35 11 19 1013.6 1012.6 0.0
 
Date/Time
EDT
Temp
°C
App
Temp
°C
Dew
Point
Rel
Hum
%
Delta-T
°C
Wind Press
QNH
hPa
Press
MSL
hPa
Rain
since 9 am
mm
Dir
 
Spd
km/h
Gust
km/h
Spd
kts
Gust
kts
02/11:30pm 22.7 20.3 14.5 60 4.9 E 20 33 11 18 1013.6 1012.6 0.0
02/11:00pm 23.1 20.8 14.7 59 5.0 E 20 33 11 18 1013.6 1012.6 0.0
02/10:30pm 23.8 21.4 14.5 56 5.6 E 20 32 11 17 1013.4 1012.4 0.0
02/10:00pm 24.8 22.1 14.6 53 6.1 E 22 39 12 21 1013.0 1012.1 0.0
02/09:30pm 25.8 23.1 14.6 50 6.8 E 22 32 12 17 1012.7 1011.8 0.0
02/09:00pm 27.0 24.7 14.7 47 7.5 E 20 35 11 19 1012.2 1011.3 0.0
02/08:30pm 28.6 26.0 14.8 43 8.4 E 22 33 12 18 1011.8 1010.9 0.0
02/08:00pm 29.6 27.9 14.6 40 9.2 ESE 17 26 9 14 1011.2 1010.3 0.0
02/07:30pm 30.6 28.3 14.2 36 10.0 ESE 19 32 10 17 1011.0 1010.1 0.0
02/07:00pm 32.0 29.7 14.2 34 10.9 ESE 19 28 10 15 1010.6 1009.6 0.0
02/06:30pm 33.4 33.9 12.9 28 12.4 ENE 2 6 1 3 1010.3 1009.3 0.0
02/06:00pm 34.1 34.1 12.4 26 13.1 NW 4 7 2 4 1010.0 1009.0 0.0
02/05:30pm 34.2 33.7 12.5 27 13.1 NW 7 15 4 8 1009.8 1008.8 0.0
02/05:00pm 35.5 35.3 13.1 26 13.7 W 6 13 3 7 1009.9 1008.9 0.0
02/04:30pm 34.5 34.4 13.3 27 13.0 E 6 17 3 9 1010.2 1009.2 0.0
02/04:00pm 34.3 33.7 14.7 30 12.2 SW 11 17 6 9 1010.5 1009.5 0.0
02/03:30pm 33.3 33.0 14.4 32 11.7 N 9 19 5 10 1011.0 1010.1 0.0
02/03:00pm 33.8 33.1 15.3 33 11.6 NE 13 24 7 13 1011.5 1010.6 0.0
02/02:30pm 32.7 32.5 15.7 36 10.7 E 11 26 6 14 1011.9 1011.0 0.0
02/02:00pm 32.4 30.8 15.0 35 10.8 NE 17 30 9 16 1012.4 1011.5 0.0
02/01:30pm 32.0 31.2 15.1 36 10.5 NE 13 22 7 12 1013.0 1012.1 0.0
02/01:00pm 30.6 28.9 14.7 38 9.8 ENE 17 24 9 13 1013.6 1012.6 0.0
02/12:30pm 29.8 27.7 14.7 39 9.3 ENE 19 33 10 18 1014.2 1013.2 0.0
02/12:00pm 28.7 26.2 14.1 40 8.8 NE 20 30 11 16 1014.3 1013.3 0.0
02/11:30am 27.6 24.7 13.9 43 8.2 E 22 35 12 19 1014.5 1013.5 0.0
02/11:00am 26.8 24.0 14.2 46 7.6 ENE 22 35 12 19 1015.0 1014.1 0.0
02/10:30am 25.4 22.8 13.9 49 6.8 E 20 39 11 21 1015.2 1014.3 0.0
02/10:00am 24.0 20.9 13.5 52 6.2 E 22 35 12 19 1015.1 1014.2 0.0
02/09:30am 23.1 20.1 13.6 55 5.6 E 22 33 12 18 1014.9 1014.0 0.0
02/09:00am 22.0 18.6 13.6 59 4.9 E 24 39 13 21 1014.8 1013.9 3.2
02/08:30am 21.0 17.5 13.4 62 4.4 E 24 39 13 21 1014.7 1013.7 3.2
02/08:00am 20.2 17.1 13.4 65 3.9 E 22 35 12 19 1014.5 1013.5 3.2
02/07:30am 19.6 16.9 13.5 68 3.5 E 20 35 11 19 1014.3 1013.3 3.2
02/07:00am 19.3 16.8 13.5 69 3.3 E 19 33 10 18 1013.9 1012.9 3.2
02/06:30am 19.4 16.9 13.6 69 3.3 E 19 30 10 16 1013.4 1012.4 3.2
02/06:00am 19.6 17.3 14.0 70 3.3 E 19 32 10 17 1013.3 1012.3 3.2
02/05:30am 20.0 17.7 14.6 71 3.2 E 20 30 11 16 1012.8 1011.9 3.2
02/05:00am 20.3 18.3 14.9 71 3.2 E 19 32 10 17 1012.8 1011.9 3.2
02/04:30am 20.8 19.0 15.4 71 3.2 ESE 19 28 10 15 1012.6 1011.7 3.2
02/04:00am 21.7 20.9 17.1 75 2.8 ESE 17 35 9 19 1012.0 1011.1 3.2
02/03:30am 18.7 17.8 11.3 62 4.1 SE 7 11 4 6 1012.1 1011.2 3.2
02/03:00am 18.8 17.0 7.9 49 5.6 SE 7 11 4 6 1012.0 1011.1 3.2
02/02:30am 19.2 16.3 4.6 38 7.1 SSE 9 15 5 8 1012.0 1011.1 3.2
02/02:00am 20.1 16.6 3.3 33 8.0 S 11 17 6 9 1012.2 1011.3 3.2
02/01:30am 19.4 16.4 4.3 37 7.3 S 9 13 5 7 1011.9 1011.0 3.2
02/01:00am 20.3 17.0 4.8 36 7.6 S 11 17 6 9 1011.9 1011.0 3.2
02/12:30am 20.0 17.1 6.4 41 6.9 SSW 11 13 6 7 1011.9 1011.0 3.2
02/12:00am 21.8 19.0 5.3 34 8.3 S 9 11 5 6 1011.8 1010.9 3.2
 
Date/Time
EDT
Temp
°C
App
Temp
°C
Dew
Point
Rel
Hum
%
Delta-T
°C
Wind Press
QNH
hPa
Press
MSL
hPa
Rain
since 9 am
mm
Dir
 
Spd
km/h
Gust
km/h
Spd
kts
Gust
kts
01/11:30pm 22.9 20.2 5.8 33 8.7 S 9 13 5 7 1011.7 1010.8 3.2
01/11:00pm 24.2 21.5 5.5 30 9.6 S 9 15 5 8 1012.0 1011.1 3.2
01/10:30pm 25.1 21.8 4.8 27 10.3 S 11 15 6 8 1012.0 1011.1 3.2
01/10:00pm 26.2 22.9 4.6 25 11.0 S 11 19 6 10 1011.7 1010.8 3.2
01/09:30pm 26.9 23.6 6.3 27 10.9 S 13 22 7 12 1011.1 1010.2 3.2
01/09:00pm 27.7 23.8 8.6 30 10.5 S 19 28 10 15 1010.5 1009.5 3.2
01/08:30pm 28.4 24.6 11.0 34 10.0 S 22 39 12 21 1009.8 1008.8 3.2
01/08:00pm 29.4 24.0 12.8 36 9.9 SSW 33 43 18 23 1008.9 1007.9 3.2
01/07:34pm 30.7 26.6 13.9 36 10.2 SSW 28 46 15 25 1008.0 1007.1 3.2
01/07:30pm 31.0 26.6 14.2 36 10.3 SSW 30 46 16 25 1007.8 1006.9 3.2
01/07:21pm 31.3 26.9 14.0 35 10.6 SSW 30 48 16 26 1007.6 1006.7 3.2
01/07:00pm 32.4 28.5 14.5 33 11.1 SSW 28 43 15 23 1007.1 1006.2 3.2
01/06:30pm 33.6 28.6 14.1 30 12.0 SSW 33 48 18 26 1006.6 1005.7 3.2
01/06:00pm 34.6 30.2 14.0 29 12.8 SSW 30 43 16 23 1006.1 1005.1 3.2
01/05:30pm 35.4 31.0 14.1 28 13.2 SW 30 39 16 21 1005.8 1004.8 3.2
01/05:00pm 35.9 32.4 14.5 27 13.4 SW 26 37 14 20 1005.4 1004.4 3.2
01/04:30pm 31.3 31.4 18.3 46 8.4 E 15 24 8 13 1005.5 1004.5 3.0
01/04:00pm 29.3 27.8 17.8 50 7.4 N 22 43 12 23 1005.5 1004.5 3.0
01/03:44pm 26.2 20.9 16.2 54 6.2 WNW 39 70 21 38 1006.3 1005.3 2.8
01/03:42pm 25.6 19.3 15.6 54 6.1 W 43 70 23 38 1006.7 1005.8 2.4
01/03:40pm 25.1 19.1 15.4 55 5.9 WSW 41 70 22 38 1006.3 1005.3 1.2
01/03:37pm 27.1 23.1 19.4 62 5.0 WSW 39 56 21 30 1006.4 1005.4 0.6
01/03:30pm 32.2 28.7 16.5 39 10.0 SW 30 44 16 24 1006.0 1005.0 0.0
01/03:00pm 36.6 33.3 14.0 26 14.1 WSW 24 35 13 19 1006.1 1005.1 0.0
01/02:30pm 36.0 33.5 14.1 27 13.6 WNW 20 35 11 19 1006.4 1005.4 0.0
01/02:00pm 36.6 34.3 14.6 27 13.8 WNW 20 35 11 19 1006.7 1005.8 0.0
01/01:30pm 36.4 34.8 16.5 30 12.8 NNW 20 32 11 17 1007.1 1006.2 0.0
01/01:00pm 35.9 33.8 17.1 32 12.2 NNW 24 37 13 20 1007.6 1006.7 0.0
01/12:30pm 34.9 33.2 18.0 36 11.1 NW 24 33 13 18 1008.0 1007.1 0.0
01/12:00pm 34.6 33.1 18.6 38 10.6 NW 24 37 13 20 1008.5 1007.5 0.0
01/11:30am 33.1 31.9 19.2 43 9.2 NNW 24 33 13 18 1008.7 1007.7 0.0
01/11:00am 32.1 30.0 19.0 45 8.6 NNW 28 37 15 20 1008.6 1007.6 0.0
01/10:30am 30.7 29.1 19.1 50 7.6 N 26 37 14 20 1008.5 1007.2 0.0
01/10:00am 30.1 28.9 19.2 52 7.2 N 24 35 13 19 1008.3 1007.1 0.0
01/09:30am 29.0 27.6 18.7 53 6.7 N 24 39 13 21 1008.3 1007.1 0.0
01/09:00am 27.9 26.4 18.6 57 6.0 N 24 37 13 20 1008.1 1006.9 0.0
01/08:30am 26.8 25.6 18.4 60 5.4 N 22 32 12 17 1008.0 1006.8 0.0
01/08:00am 25.9 25.1 18.1 62 5.0 N 19 32 10 17 1007.7 1006.5 0.0
01/07:30am 25.1 25.4 17.8 64 4.6 N 13 19 7 10 1007.2 1006.0 0.0
01/07:00am 24.8 24.8 17.3 63 4.7 N 13 19 7 10 1006.9 1005.7 0.0
01/06:30am 25.1 25.3 17.6 63 4.7 N 13 17 7 9 1006.5 1005.3 0.0
01/06:00am 24.8 25.7 17.5 64 4.6 NNE 9 15 5 8 1006.2 1005.0 0.0
01/05:30am 25.0 25.5 17.5 63 4.7 N 11 17 6 9 1006.0 1004.8 0.0
01/05:00am 24.8 25.5 17.0 62 4.9 N 9 13 5 7 1005.9 1004.7 0.0
01/04:30am 25.2 25.5 16.9 60 5.2 N 11 17 6 9 1005.6 1004.4 0.0
01/04:00am 25.5 25.6 16.6 58 5.5 N 11 17 6 9 1005.7 1004.5 0.0
01/03:30am 25.9 26.0 16.5 56 5.8 N 11 20 6 11 1005.9 1004.7 0.0
01/03:00am 25.9 26.2 15.9 54 6.2 NNE 9 15 5 8 1006.2 1005.0 0.0
01/02:30am 25.7 25.7 15.1 52 6.4 NNE 9 13 5 7 1006.4 1005.2 0.0
01/02:00am 26.2 26.1 15.0 50 6.8 NNE 9 13 5 7 1006.7 1005.5 0.0
01/01:30am 26.4 26.1 14.5 48 7.2 NE 9 15 5 8 1007.0 1005.8 0.0
01/01:00am 26.7 26.2 13.8 45 7.7 NE 9 15 5 8 1007.1 1005.9 0.0
01/12:30am 27.2 26.7 13.9 44 8.0 NE 9 13 5 7 1007.1 1005.9 0.0
01/12:00am 27.2 27.0 13.5 42 8.2 ENE 7 11 4 6 1007.2 1006.0 0.0
 
Date/Time
EDT
Temp
°C
App
Temp
°C
Dew
Point
Rel
Hum
%
Delta-T
°C
Wind Press
QNH
hPa
Press
MSL
hPa
Rain
since 9 am
mm
Dir
 
Spd
km/h
Gust
km/h
Spd
kts
Gust
kts
28/11:30pm 27.0 26.5 12.6 41 8.5 ENE 7 9 4 5 1007.3 1006.1 0.0
28/11:00pm 27.4 26.6 11.8 38 9.1 E 7 9 4 5 1007.5 1006.3 0.0
28/10:30pm 28.3 27.5 11.8 36 9.6 NE 7 9 4 5 1007.4 1006.2 0.0
28/10:00pm 28.2 27.3 11.3 35 9.8 NE 7 9 4 5 1007.3 1006.1 0.0
28/09:30pm 29.2 27.9 11.3 33 10.4 NE 9 11 5 6 1007.0 1005.8 0.0
28/09:00pm 29.1 27.9 11.6 33 10.2 NE 9 13 5 7 1006.7 1005.5 0.0
28/08:30pm 29.5 28.6 10.6 31 10.9 NNW 6 7 3 4 1006.4 1005.2 0.0
28/08:00pm 31.4 30.5 10.7 28 12.0 NNW 6 7 3 4 1006.1 1004.9 0.0

Other Formats:

Comma delimited format used in spreadsheet applications
http://www.bom.gov.au/fwo/IDN60801/IDN60801.95710.axf

JavaScript Object Notation format (JSON) in row-major order
http://www.bom.gov.au/fwo/IDN60801/IDN60801.95710.json